createdAt,value
2022-10-08T00:00:08.981Z,1011.55
2022-10-08T00:01:08.980Z,1011.51
2022-10-08T00:02:09.066Z,1011.46
2022-10-08T00:03:08.950Z,1011.49
2022-10-08T00:04:09.002Z,1011.47
2022-10-08T00:05:08.926Z,1011.41
2022-10-08T00:06:08.927Z,1011.43
2022-10-08T00:07:08.920Z,1011.49
2022-10-08T00:08:08.894Z,1011.43
2022-10-08T00:09:08.889Z,1011.48
2022-10-08T00:10:08.892Z,1011.47
2022-10-08T00:11:08.874Z,1011.46
2022-10-08T00:12:08.849Z,1011.46
2022-10-08T00:13:08.838Z,1011.43
2022-10-08T00:14:08.829Z,1011.45
2022-10-08T00:15:08.816Z,1011.43
2022-10-08T00:16:08.851Z,1011.40
2022-10-08T00:17:08.794Z,1011.41
2022-10-08T00:18:08.783Z,1011.43
2022-10-08T00:19:08.772Z,1011.43
2022-10-08T00:20:08.764Z,1011.41
2022-10-08T00:21:08.761Z,1011.38
2022-10-08T00:22:08.742Z,1011.40
2022-10-08T00:23:08.728Z,1011.36
2022-10-08T00:24:08.723Z,1011.34
2022-10-08T00:25:08.707Z,1011.36
2022-10-08T00:26:08.729Z,1011.39
2022-10-08T00:27:08.685Z,1011.37
2022-10-08T00:28:08.739Z,1011.36
2022-10-08T00:29:08.664Z,1011.38
2022-10-08T00:30:08.652Z,1011.38
2022-10-08T00:31:08.732Z,1011.36
2022-10-08T00:32:08.631Z,1011.38
2022-10-08T00:33:08.618Z,1011.35
2022-10-08T00:34:08.612Z,1011.33
2022-10-08T00:35:08.597Z,1011.31
2022-10-08T00:36:08.597Z,1011.28
2022-10-08T00:37:08.577Z,1011.30
2022-10-08T00:38:08.568Z,1011.32
2022-10-08T00:39:08.555Z,1011.34
2022-10-08T00:40:08.545Z,1011.37
2022-10-08T00:41:08.544Z,1011.36
2022-10-08T00:42:08.539Z,1011.40
2022-10-08T00:43:08.510Z,1011.42
2022-10-08T00:44:08.500Z,1011.41
2022-10-08T00:45:08.486Z,1011.39
2022-10-08T00:46:08.528Z,1011.38
2022-10-08T00:47:08.465Z,1011.39
2022-10-08T00:48:08.457Z,1011.40
2022-10-08T00:49:08.446Z,1011.40
2022-10-08T00:50:08.437Z,1011.39
2022-10-08T00:51:08.433Z,1011.39
2022-10-08T00:52:08.413Z,1011.36
2022-10-08T00:53:08.400Z,1011.34
2022-10-08T00:54:08.391Z,1011.34
2022-10-08T00:55:08.382Z,1011.32
2022-10-08T00:56:08.388Z,1011.32
2022-10-08T00:57:08.361Z,1011.34
2022-10-08T00:58:08.366Z,1011.34
2022-10-08T00:59:08.335Z,1011.33
2022-10-08T01:00:08.325Z,1011.32
2022-10-08T01:01:08.471Z,1011.34
2022-10-08T01:02:08.461Z,1011.34
2022-10-08T01:03:08.296Z,1011.31
2022-10-08T01:04:08.281Z,1011.30
2022-10-08T01:05:08.279Z,1011.30
2022-10-08T01:06:08.270Z,1011.26
2022-10-08T01:07:08.245Z,1011.25
2022-10-08T01:08:08.241Z,1011.25
2022-10-08T01:09:08.225Z,1011.25
2022-10-08T01:10:08.216Z,1011.22
2022-10-08T01:11:08.222Z,1011.19
2022-10-08T01:12:08.193Z,1011.17
2022-10-08T01:13:08.180Z,1011.20
2022-10-08T01:14:08.192Z,1011.17
2022-10-08T01:15:08.158Z,1011.17
2022-10-08T01:16:08.203Z,1011.15
2022-10-08T01:17:08.141Z,1011.19
2022-10-08T01:18:08.128Z,1011.16
2022-10-08T01:19:08.121Z,1011.16
2022-10-08T01:20:08.138Z,1011.15
2022-10-08T01:21:08.105Z,1011.16
2022-10-08T01:22:08.113Z,1011.16
2022-10-08T01:23:08.112Z,1011.22
2022-10-08T01:24:08.063Z,1011.21
2022-10-08T01:25:08.052Z,1011.20
2022-10-08T01:26:08.049Z,1011.19
2022-10-08T01:27:08.031Z,1011.19
2022-10-08T01:28:08.113Z,1011.21
2022-10-08T01:29:08.006Z,1011.17
2022-10-08T01:30:08.013Z,1011.14
2022-10-08T01:31:08.034Z,1011.09
2022-10-08T01:32:07.974Z,1011.06
2022-10-08T01:33:07.960Z,1011.03
2022-10-08T01:34:07.952Z,1011.02
2022-10-08T01:35:07.946Z,1011.02
2022-10-08T01:36:07.973Z,1011.05
2022-10-08T01:37:07.926Z,1011.04
2022-10-08T01:38:07.907Z,1010.97
2022-10-08T01:39:07.930Z,1010.98
2022-10-08T01:40:07.888Z,1010.95
2022-10-08T01:41:07.886Z,1010.99
2022-10-08T01:42:08.042Z,1010.99
2022-10-08T01:43:07.852Z,1010.97
2022-10-08T01:44:07.842Z,1010.95
2022-10-08T01:45:07.831Z,1010.98
2022-10-08T01:46:07.956Z,1010.98
2022-10-08T01:47:07.815Z,1010.94
2022-10-08T01:48:07.799Z,1010.95
2022-10-08T01:49:07.790Z,1010.93
2022-10-08T01:50:07.777Z,1010.95
2022-10-08T01:51:07.778Z,1010.90
2022-10-08T01:52:07.757Z,1010.87
2022-10-08T01:53:07.745Z,1010.88
2022-10-08T01:54:07.733Z,1010.88
2022-10-08T01:55:07.723Z,1010.87
2022-10-08T01:56:07.724Z,1010.93
2022-10-08T01:57:07.701Z,1010.92
2022-10-08T01:58:15.345Z,1010.87
2022-10-08T01:59:07.676Z,1010.87
2022-10-08T02:00:07.681Z,1010.89
2022-10-08T02:01:07.759Z,1010.85
2022-10-08T02:02:07.806Z,1010.84
2022-10-08T02:03:07.634Z,1010.79
2022-10-08T02:04:07.624Z,1010.77
2022-10-08T02:05:07.612Z,1010.73
2022-10-08T02:06:07.614Z,1010.72
2022-10-08T02:07:07.725Z,1010.72
2022-10-08T02:08:07.580Z,1010.75
2022-10-08T02:09:07.569Z,1010.73
2022-10-08T02:10:07.559Z,1010.77
2022-10-08T02:11:07.569Z,1010.78
2022-10-08T02:12:07.663Z,1010.75
2022-10-08T02:13:07.523Z,1010.77
2022-10-08T02:14:07.515Z,1010.72
2022-10-08T02:15:07.503Z,1010.70
2022-10-08T02:16:07.517Z,1010.67
2022-10-08T02:17:07.481Z,1010.63
2022-10-08T02:18:07.504Z,1010.59
2022-10-08T02:19:07.459Z,1010.58
2022-10-08T02:20:07.450Z,1010.55
2022-10-08T02:21:07.450Z,1010.56
2022-10-08T02:22:07.519Z,1010.58
2022-10-08T02:23:07.420Z,1010.55
2022-10-08T02:24:07.405Z,1010.54
2022-10-08T02:25:07.394Z,1010.59
2022-10-08T02:26:07.396Z,1010.58
2022-10-08T02:27:07.464Z,1010.59
2022-10-08T02:28:07.494Z,1010.58
2022-10-08T02:29:07.350Z,1010.59
2022-10-08T02:30:07.340Z,1010.62
2022-10-08T02:31:07.341Z,1010.68
2022-10-08T02:32:07.471Z,1010.67
2022-10-08T02:33:07.307Z,1010.62
2022-10-08T02:34:07.315Z,1010.61
2022-10-08T02:35:07.287Z,1010.62
2022-10-08T02:36:07.283Z,1010.58
2022-10-08T02:37:07.344Z,1010.61
2022-10-08T02:38:07.253Z,1010.60
2022-10-08T02:39:07.242Z,1010.62
2022-10-08T02:40:07.231Z,1010.62
2022-10-08T02:41:07.230Z,1010.61
2022-10-08T02:42:07.241Z,1010.68
2022-10-08T02:43:07.198Z,1010.70
2022-10-08T02:44:07.188Z,1010.71
2022-10-08T02:45:07.175Z,1010.73
2022-10-08T02:46:07.253Z,1010.72
2022-10-08T02:47:07.184Z,1010.67
2022-10-08T02:48:07.142Z,1010.65
2022-10-08T02:49:07.133Z,1010.66
2022-10-08T02:50:07.146Z,1010.64
2022-10-08T02:51:07.118Z,1010.62
2022-10-08T02:52:07.099Z,1010.65
2022-10-08T02:53:07.088Z,1010.69
2022-10-08T02:54:07.082Z,1010.73
2022-10-08T02:55:07.078Z,1010.67
2022-10-08T02:56:07.060Z,1010.70
2022-10-08T02:57:09.523Z,1010.74
2022-10-08T02:58:07.034Z,1010.73
2022-10-08T02:59:07.025Z,1010.71
2022-10-08T03:00:07.030Z,1010.74
2022-10-08T03:01:07.064Z,1010.74
2022-10-08T03:02:07.031Z,1010.75
2022-10-08T03:03:06.979Z,1010.72
2022-10-08T03:04:06.969Z,1010.75
2022-10-08T03:05:06.971Z,1010.73
2022-10-08T03:06:06.966Z,1010.74
2022-10-08T03:07:07.010Z,1010.76
2022-10-08T03:08:06.923Z,1010.76
2022-10-08T03:09:06.931Z,1010.73
2022-10-08T03:10:06.912Z,1010.72
2022-10-08T03:11:06.889Z,1010.72
2022-10-08T03:12:06.888Z,1010.75
2022-10-08T03:13:06.868Z,1010.76
2022-10-08T03:14:06.859Z,1010.74
2022-10-08T03:15:06.857Z,1010.74
2022-10-08T03:16:06.836Z,1010.74
2022-10-08T03:17:06.825Z,1010.71
2022-10-08T03:18:06.816Z,1010.71
2022-10-08T03:19:06.803Z,1010.70
2022-10-08T03:20:06.808Z,1010.70
2022-10-08T03:21:06.784Z,1010.75
2022-10-08T03:22:06.789Z,1010.72
2022-10-08T03:23:06.772Z,1010.73
2022-10-08T03:24:06.750Z,1010.73
2022-10-08T03:25:06.751Z,1010.74
2022-10-08T03:26:06.729Z,1010.74
2022-10-08T03:27:06.746Z,1010.72
2022-10-08T03:28:06.741Z,1010.74
2022-10-08T03:29:06.700Z,1010.73
2022-10-08T03:30:06.692Z,1010.73
2022-10-08T03:31:06.855Z,1010.78
2022-10-08T03:32:06.661Z,1010.75
2022-10-08T03:33:06.652Z,1010.74
2022-10-08T03:34:06.640Z,1010.73
2022-10-08T03:35:06.638Z,1010.79
2022-10-08T03:36:06.617Z,1010.76
2022-10-08T03:37:06.607Z,1010.77
2022-10-08T03:38:06.697Z,1010.78
2022-10-08T03:39:06.586Z,1010.77
2022-10-08T03:40:06.587Z,1010.74
2022-10-08T03:41:06.576Z,1010.76
2022-10-08T03:42:06.563Z,1010.78
2022-10-08T03:43:06.541Z,1010.74
2022-10-08T03:44:06.533Z,1010.75
2022-10-08T03:45:06.531Z,1010.75
2022-10-08T03:46:06.613Z,1010.76
2022-10-08T03:47:06.503Z,1010.75
2022-10-08T03:48:06.487Z,1010.71
2022-10-08T03:49:06.478Z,1010.73
2022-10-08T03:50:06.477Z,1010.74
2022-10-08T03:51:06.462Z,1010.71
2022-10-08T03:52:06.443Z,1010.71
2022-10-08T03:53:06.433Z,1010.71
2022-10-08T03:54:06.553Z,1010.70
2022-10-08T03:55:06.425Z,1010.73
2022-10-08T03:56:06.400Z,1010.71
2022-10-08T03:57:06.468Z,1010.71
2022-10-08T03:58:06.380Z,1010.70
2022-10-08T03:59:06.381Z,1010.71
2022-10-08T04:00:06.365Z,1010.68
2022-10-08T04:01:06.371Z,1010.68
2022-10-08T04:02:06.335Z,1010.64
2022-10-08T04:03:06.417Z,1010.64
2022-10-08T04:04:06.314Z,1010.61
2022-10-08T04:05:06.314Z,1010.58
2022-10-08T04:06:06.292Z,1010.58
2022-10-08T04:07:06.281Z,1010.58
2022-10-08T04:08:06.268Z,1010.67
2022-10-08T04:09:06.261Z,1010.64
2022-10-08T04:10:06.274Z,1010.57
2022-10-08T04:11:06.238Z,1010.61
2022-10-08T04:12:06.229Z,1010.59
2022-10-08T04:13:06.215Z,1010.60
2022-10-08T04:14:06.205Z,1010.62
2022-10-08T04:15:06.211Z,1010.63
2022-10-08T04:16:06.224Z,1010.63
2022-10-08T04:17:06.171Z,1010.59
2022-10-08T04:18:06.159Z,1010.59
2022-10-08T04:19:06.154Z,1010.58
2022-10-08T04:20:06.150Z,1010.59
2022-10-08T04:21:06.129Z,1010.62
2022-10-08T04:22:06.116Z,1010.64
2022-10-08T04:23:06.106Z,1010.66
2022-10-08T04:24:06.116Z,1010.66
2022-10-08T04:25:06.097Z,1010.65
2022-10-08T04:26:06.089Z,1010.71
2022-10-08T04:27:06.064Z,1010.69
2022-10-08T04:28:06.111Z,1010.68
2022-10-08T04:29:06.053Z,1010.70
2022-10-08T04:30:06.029Z,1010.70
2022-10-08T04:31:06.119Z,1010.66
2022-10-08T04:32:06.007Z,1010.64
2022-10-08T04:33:05.996Z,1010.63
2022-10-08T04:34:06.000Z,1010.61
2022-10-08T04:35:05.975Z,1010.64
2022-10-08T04:36:05.962Z,1010.60
2022-10-08T04:37:06.053Z,1010.65
2022-10-08T04:38:05.942Z,1010.64
2022-10-08T04:39:05.952Z,1010.60
2022-10-08T04:40:05.917Z,1010.63
2022-10-08T04:41:05.910Z,1010.63
2022-10-08T04:42:05.915Z,1010.62
2022-10-08T04:43:05.888Z,1010.63
2022-10-08T04:44:05.885Z,1010.66
2022-10-08T04:45:05.867Z,1010.60
2022-10-08T04:46:05.912Z,1010.62
2022-10-08T04:47:05.846Z,1010.61
2022-10-08T04:48:05.832Z,1010.61
2022-10-08T04:49:05.837Z,1010.65
2022-10-08T04:50:05.811Z,1010.66
2022-10-08T04:51:10.027Z,1010.68
2022-10-08T04:52:05.788Z,1010.70
2022-10-08T04:53:05.778Z,1010.69
2022-10-08T04:54:05.776Z,1010.73
2022-10-08T04:55:05.757Z,1010.72
2022-10-08T04:56:05.760Z,1010.71
2022-10-08T04:57:05.736Z,1010.74
2022-10-08T04:58:05.740Z,1010.73
2022-10-08T04:59:05.726Z,1010.74
2022-10-08T05:00:18.231Z,1010.76
2022-10-08T05:01:06.690Z,1010.71
2022-10-08T05:02:05.762Z,1010.70
2022-10-08T05:03:05.707Z,1010.68
2022-10-08T05:04:05.666Z,1010.67
2022-10-08T05:05:05.647Z,1010.70
2022-10-08T05:06:05.635Z,1010.69
2022-10-08T05:07:05.630Z,1010.73
2022-10-08T05:08:05.614Z,1010.67
2022-10-08T05:09:05.615Z,1010.67
2022-10-08T05:10:05.591Z,1010.72
2022-10-08T05:11:05.584Z,1010.74
2022-10-08T05:12:05.570Z,1010.72
2022-10-08T05:13:05.604Z,1010.75
2022-10-08T05:14:05.579Z,1010.70
2022-10-08T05:15:05.538Z,1010.68
2022-10-08T05:16:05.577Z,1010.72
2022-10-08T05:17:05.518Z,1010.68
2022-10-08T05:18:05.505Z,1010.71
2022-10-08T05:19:05.596Z,1010.73
2022-10-08T05:20:05.485Z,1010.75
2022-10-08T05:21:05.476Z,1010.78
2022-10-08T05:22:05.495Z,1010.76
2022-10-08T05:23:05.456Z,1010.76
2022-10-08T05:24:05.451Z,1010.77
2022-10-08T05:25:05.432Z,1010.78
2022-10-08T05:26:05.417Z,1010.78
2022-10-08T05:27:05.436Z,1010.78
2022-10-08T05:28:05.424Z,1010.76
2022-10-08T05:29:05.402Z,1010.76
2022-10-08T05:30:05.501Z,1010.76
2022-10-08T05:31:05.442Z,1010.77
2022-10-08T05:32:05.400Z,1010.77
2022-10-08T05:33:05.355Z,1010.79
2022-10-08T05:34:05.363Z,1010.79
2022-10-08T05:35:05.348Z,1010.75
2022-10-08T05:36:05.310Z,1010.80
2022-10-08T05:37:05.301Z,1010.78
2022-10-08T05:38:05.309Z,1010.76
2022-10-08T05:39:05.317Z,1010.78
2022-10-08T05:40:05.274Z,1010.73
2022-10-08T05:41:05.274Z,1010.70
2022-10-08T05:42:05.244Z,1010.76
2022-10-08T05:43:05.288Z,1010.73
2022-10-08T05:44:05.270Z,1010.72
2022-10-08T05:45:05.260Z,1010.76
2022-10-08T05:46:05.317Z,1010.73
2022-10-08T05:47:05.194Z,1010.72
2022-10-08T05:48:05.184Z,1010.73
2022-10-08T05:49:05.185Z,1010.74
2022-10-08T05:50:05.176Z,1010.75
2022-10-08T05:51:05.147Z,1010.73
2022-10-08T05:52:05.136Z,1010.77
2022-10-08T05:53:09.088Z,1010.81
2022-10-08T05:54:05.129Z,1010.78
2022-10-08T05:55:05.110Z,1010.76
2022-10-08T05:56:05.092Z,1010.77
2022-10-08T05:57:05.094Z,1010.74
2022-10-08T05:58:05.069Z,1010.73
2022-10-08T05:59:05.074Z,1010.75
2022-10-08T06:00:05.057Z,1010.78
2022-10-08T06:01:05.038Z,1010.73
2022-10-08T06:02:05.054Z,1010.78
2022-10-08T06:03:05.075Z,1010.79
2022-10-08T06:04:08.779Z,1010.83
2022-10-08T06:05:05.143Z,1010.83
2022-10-08T06:06:04.981Z,1010.80
2022-10-08T06:07:04.973Z,1010.82
2022-10-08T06:08:04.960Z,1010.82
2022-10-08T06:09:04.967Z,1010.80
2022-10-08T06:10:04.941Z,1010.83
2022-10-08T06:11:04.933Z,1010.80
2022-10-08T06:12:04.917Z,1010.83
2022-10-08T06:13:04.929Z,1010.80
2022-10-08T06:14:04.963Z,1010.78
2022-10-08T06:15:04.887Z,1010.82
2022-10-08T06:16:04.956Z,1010.78
2022-10-08T06:17:04.888Z,1010.80
2022-10-08T06:18:04.880Z,1010.83
2022-10-08T06:19:05.111Z,1010.83
2022-10-08T06:20:04.856Z,1010.88
2022-10-08T06:21:04.820Z,1010.90
2022-10-08T06:22:04.811Z,1010.92
2022-10-08T06:23:04.836Z,1010.90
2022-10-08T06:24:04.819Z,1010.92
2022-10-08T06:25:04.817Z,1010.93
2022-10-08T06:26:04.770Z,1010.94
2022-10-08T06:27:04.761Z,1010.94
2022-10-08T06:28:04.803Z,1010.98
2022-10-08T06:29:04.744Z,1010.95
2022-10-08T06:30:04.720Z,1010.98
2022-10-08T06:31:04.794Z,1011.02
2022-10-08T06:32:04.697Z,1011.03
2022-10-08T06:33:04.688Z,1011.04
2022-10-08T06:34:05.029Z,1011.07
2022-10-08T06:35:04.666Z,1011.11
2022-10-08T06:36:04.654Z,1011.12
2022-10-08T06:37:04.647Z,1011.13
2022-10-08T06:38:04.641Z,1011.12
2022-10-08T06:39:04.657Z,1011.13
2022-10-08T06:40:04.610Z,1011.15
2022-10-08T06:41:04.636Z,1011.13
2022-10-08T06:42:04.591Z,1011.16
2022-10-08T06:43:04.582Z,1011.15
2022-10-08T06:44:04.580Z,1011.16
2022-10-08T06:45:04.575Z,1011.14
2022-10-08T06:46:04.546Z,1011.15
2022-10-08T06:47:04.582Z,1011.15
2022-10-08T06:48:04.570Z,1011.20
2022-10-08T06:49:04.515Z,1011.18
2022-10-08T06:50:04.534Z,1011.17
2022-10-08T06:51:04.523Z,1011.23
2022-10-08T06:52:04.480Z,1011.20
2022-10-08T06:53:04.482Z,1011.21
2022-10-08T06:54:07.742Z,1011.19
2022-10-08T06:55:04.452Z,1011.21
2022-10-08T06:56:04.438Z,1011.23
2022-10-08T06:57:04.427Z,1011.18
2022-10-08T06:58:04.457Z,1011.19
2022-10-08T06:59:04.407Z,1011.14
2022-10-08T07:00:04.393Z,1011.21
2022-10-08T07:01:04.429Z,1011.20
2022-10-08T07:02:04.439Z,1011.23
2022-10-08T07:03:04.382Z,1011.20
2022-10-08T07:04:04.361Z,1011.19
2022-10-08T07:05:04.345Z,1011.22
2022-10-08T07:06:04.344Z,1011.15
2022-10-08T07:07:04.320Z,1011.18
2022-10-08T07:08:04.318Z,1011.15
2022-10-08T07:09:04.297Z,1011.13
2022-10-08T07:10:04.286Z,1011.13
2022-10-08T07:11:04.275Z,1011.15
2022-10-08T07:12:04.262Z,1011.15
2022-10-08T07:13:04.272Z,1011.20
2022-10-08T07:14:04.245Z,1011.12
2022-10-08T07:15:04.232Z,1011.14
2022-10-08T07:16:04.276Z,1011.17
2022-10-08T07:17:04.210Z,1011.14
2022-10-08T07:18:04.208Z,1011.11
2022-10-08T07:19:04.192Z,1011.16
2022-10-08T07:20:04.177Z,1011.24
2022-10-08T07:21:04.168Z,1011.23
2022-10-08T07:22:04.177Z,1011.26
2022-10-08T07:23:04.159Z,1011.25
2022-10-08T07:24:04.133Z,1011.33
2022-10-08T07:25:04.125Z,1011.44
2022-10-08T07:26:04.132Z,1011.49
2022-10-08T07:27:04.105Z,1011.47
2022-10-08T07:28:04.199Z,1011.50
2022-10-08T07:29:04.085Z,1011.50
2022-10-08T07:30:04.100Z,1011.43
2022-10-08T07:31:04.107Z,1011.42
2022-10-08T07:32:04.052Z,1011.41
2022-10-08T07:33:04.066Z,1011.37
2022-10-08T07:34:04.038Z,1011.42
2022-10-08T07:35:04.017Z,1011.35
2022-10-08T07:36:04.009Z,1011.45
2022-10-08T07:37:03.996Z,1011.36
2022-10-08T07:38:04.009Z,1011.39
2022-10-08T07:39:04.093Z,1011.38
2022-10-08T07:40:03.960Z,1011.41
2022-10-08T07:41:03.952Z,1011.45
2022-10-08T07:42:03.946Z,1011.47
2022-10-08T07:43:03.942Z,1011.47
2022-10-08T07:44:03.920Z,1011.50
2022-10-08T07:45:03.908Z,1011.44
2022-10-08T07:46:03.944Z,1011.49
2022-10-08T07:47:03.888Z,1011.49
2022-10-08T07:48:03.886Z,1011.53
2022-10-08T07:49:03.865Z,1011.58
2022-10-08T07:50:03.855Z,1011.52
2022-10-08T07:51:03.845Z,1011.53
2022-10-08T07:52:03.835Z,1011.55
2022-10-08T07:53:03.840Z,1011.58
2022-10-08T07:54:03.954Z,1011.53
2022-10-08T07:55:03.809Z,1011.60
2022-10-08T07:56:03.794Z,1011.58
2022-10-08T07:57:03.784Z,1011.58
2022-10-08T07:58:03.783Z,1011.57
2022-10-08T07:59:03.763Z,1011.60
2022-10-08T08:00:03.753Z,1011.63
2022-10-08T08:01:03.863Z,1011.57
2022-10-08T08:02:03.819Z,1011.61
2022-10-08T08:03:03.734Z,1011.55
2022-10-08T08:04:03.716Z,1011.53
2022-10-08T08:05:03.701Z,1011.55
2022-10-08T08:06:03.695Z,1011.58
2022-10-08T08:07:03.705Z,1011.61
2022-10-08T08:08:03.686Z,1011.61
2022-10-08T08:09:03.698Z,1011.63
2022-10-08T08:10:03.672Z,1011.65
2022-10-08T08:11:03.652Z,1011.60
2022-10-08T08:12:03.656Z,1011.62
2022-10-08T08:13:03.646Z,1011.59
2022-10-08T08:14:03.613Z,1011.63
2022-10-08T08:15:03.600Z,1011.66
2022-10-08T08:16:03.628Z,1011.61
2022-10-08T08:17:03.598Z,1011.61
2022-10-08T08:18:03.569Z,1011.62
2022-10-08T08:19:03.560Z,1011.63
2022-10-08T08:20:03.551Z,1011.62
2022-10-08T08:21:03.540Z,1011.58
2022-10-08T08:22:03.545Z,1011.58
2022-10-08T08:23:03.520Z,1011.63
2022-10-08T08:24:03.511Z,1011.60
2022-10-08T08:25:03.499Z,1011.60
2022-10-08T08:26:03.511Z,1011.70
2022-10-08T08:27:03.494Z,1011.68
2022-10-08T08:28:03.550Z,1011.66
2022-10-08T08:29:03.456Z,1011.66
2022-10-08T08:30:03.449Z,1011.68
2022-10-08T08:31:03.450Z,1011.67
2022-10-08T08:32:03.610Z,1011.71
2022-10-08T08:33:03.419Z,1011.70
2022-10-08T08:34:03.410Z,1011.67
2022-10-08T08:35:03.396Z,1011.70
2022-10-08T08:36:03.389Z,1011.68
2022-10-08T08:37:03.400Z,1011.60
2022-10-08T08:38:03.366Z,1011.67
2022-10-08T08:39:03.359Z,1011.62
2022-10-08T08:40:03.345Z,1011.68
2022-10-08T08:41:03.332Z,1011.69
2022-10-08T08:42:03.351Z,1011.73
2022-10-08T08:43:03.311Z,1011.59
2022-10-08T08:44:03.304Z,1011.63
2022-10-08T08:45:03.291Z,1011.71
2022-10-08T08:46:03.327Z,1011.62
2022-10-08T08:47:03.352Z,1011.65
2022-10-08T08:48:03.263Z,1011.64
2022-10-08T08:49:03.252Z,1011.60
2022-10-08T08:50:03.242Z,1011.60
2022-10-08T08:51:03.230Z,1011.60
2022-10-08T08:52:03.236Z,1011.56
2022-10-08T08:53:03.210Z,1011.66
2022-10-08T08:54:03.200Z,1011.59
2022-10-08T08:55:03.188Z,1011.65
2022-10-08T08:56:03.179Z,1011.70
2022-10-08T08:57:03.178Z,1011.70
2022-10-08T08:58:04.352Z,1011.70
2022-10-08T08:59:03.147Z,1011.70
2022-10-08T09:00:03.136Z,1011.68
2022-10-08T09:01:03.217Z,1011.65
2022-10-08T09:02:03.129Z,1011.75
2022-10-08T09:03:03.103Z,1011.70
2022-10-08T09:04:03.093Z,1011.77
2022-10-08T09:05:03.166Z,1011.72
2022-10-08T09:06:03.072Z,1011.71
2022-10-08T09:07:03.072Z,1011.70
2022-10-08T09:08:03.050Z,1011.79
2022-10-08T09:09:03.068Z,1011.68
2022-10-08T09:10:03.033Z,1011.75
2022-10-08T09:11:03.017Z,1011.82
2022-10-08T09:12:03.076Z,1011.78
2022-10-08T09:13:02.996Z,1011.84
2022-10-08T09:14:03.012Z,1011.87
2022-10-08T09:15:02.975Z,1011.81
2022-10-08T09:16:02.973Z,1011.83
2022-10-08T09:17:03.031Z,1011.88
2022-10-08T09:18:02.955Z,1012.00
2022-10-08T09:19:02.960Z,1011.95
2022-10-08T09:20:02.927Z,1011.95
2022-10-08T09:21:02.922Z,1012.05
2022-10-08T09:22:02.917Z,1011.93
2022-10-08T09:23:02.902Z,1011.86
2022-10-08T09:24:02.896Z,1011.81
2022-10-08T09:25:02.911Z,1011.81
2022-10-08T09:26:02.865Z,1011.75
2022-10-08T09:27:02.937Z,1011.96
2022-10-08T09:28:02.894Z,1011.76
2022-10-08T09:29:02.859Z,1011.81
2022-10-08T09:30:02.837Z,1011.81
2022-10-08T09:31:08.056Z,1011.89
2022-10-08T09:32:03.817Z,1011.83
2022-10-08T09:33:02.811Z,1012.04
2022-10-08T09:34:02.781Z,1011.95
2022-10-08T09:35:02.773Z,1011.95
2022-10-08T09:36:02.772Z,1011.95
2022-10-08T09:37:02.758Z,1011.93
2022-10-08T09:38:05.853Z,1011.94
2022-10-08T09:39:02.725Z,1012.04
2022-10-08T09:40:02.720Z,1012.07
2022-10-08T09:41:02.710Z,1012.03
2022-10-08T09:42:02.708Z,1011.99
2022-10-08T09:43:02.684Z,1011.94
2022-10-08T09:44:02.674Z,1011.99
2022-10-08T09:45:02.673Z,1011.99
2022-10-08T09:46:02.753Z,1012.04
2022-10-08T09:47:02.672Z,1012.04
2022-10-08T09:48:02.635Z,1012.03
2022-10-08T09:49:02.623Z,1012.06
2022-10-08T09:50:02.624Z,1012.00
2022-10-08T09:51:02.635Z,1012.02
2022-10-08T09:52:02.602Z,1012.00
2022-10-08T09:53:02.577Z,1012.01
2022-10-08T09:54:02.571Z,1011.98
2022-10-08T09:55:02.556Z,1012.01
2022-10-08T09:56:02.547Z,1012.03
2022-10-08T09:57:02.547Z,1012.05
2022-10-08T09:58:02.525Z,1012.10
2022-10-08T09:59:02.514Z,1012.09
2022-10-08T10:00:02.521Z,1012.14
2022-10-08T10:01:02.531Z,1012.18
2022-10-08T10:02:02.525Z,1012.15
2022-10-08T10:03:02.470Z,1012.13
2022-10-08T10:04:02.583Z,1012.09
2022-10-08T10:05:02.470Z,1012.16
2022-10-08T10:06:02.465Z,1012.09
2022-10-08T10:07:02.439Z,1012.12
2022-10-08T10:08:02.420Z,1012.17
2022-10-08T10:09:02.417Z,1012.20
2022-10-08T10:10:02.402Z,1012.19
2022-10-08T10:11:02.399Z,1012.10
2022-10-08T10:12:02.385Z,1012.12
2022-10-08T10:13:02.363Z,1012.10
2022-10-08T10:14:02.356Z,1012.20
2022-10-08T10:15:02.341Z,1012.13
2022-10-08T10:16:02.330Z,1012.30
2022-10-08T10:17:02.383Z,1012.10
2022-10-08T10:18:02.324Z,1012.12
2022-10-08T10:19:02.294Z,1012.10
2022-10-08T10:20:02.286Z,1012.11
2022-10-08T10:21:02.275Z,1012.11
2022-10-08T10:22:02.293Z,1012.13
2022-10-08T10:23:02.258Z,1012.18
2022-10-08T10:24:02.241Z,1012.19
2022-10-08T10:25:02.231Z,1012.27
2022-10-08T10:26:06.306Z,1012.24
2022-10-08T10:27:02.222Z,1012.27
2022-10-08T10:28:02.230Z,1012.22
2022-10-08T10:29:02.209Z,1012.21
2022-10-08T10:30:02.184Z,1012.12
2022-10-08T10:31:02.286Z,1012.23
2022-10-08T10:32:02.155Z,1012.27
2022-10-08T10:33:02.141Z,1012.29
2022-10-08T10:34:02.146Z,1012.29
2022-10-08T10:35:02.119Z,1012.31
2022-10-08T10:36:02.120Z,1012.34
2022-10-08T10:37:02.097Z,1012.31
2022-10-08T10:38:02.108Z,1012.34
2022-10-08T10:39:02.082Z,1012.29
2022-10-08T10:40:02.077Z,1012.34
2022-10-08T10:41:02.071Z,1012.32
2022-10-08T10:42:02.044Z,1012.29
2022-10-08T10:43:02.034Z,1012.32
2022-10-08T10:44:02.040Z,1012.34
2022-10-08T10:45:02.010Z,1012.32
2022-10-08T10:46:02.046Z,1012.32
2022-10-08T10:47:02.000Z,1012.31
2022-10-08T10:48:02.001Z,1012.29
2022-10-08T10:49:01.970Z,1012.33
2022-10-08T10:50:01.973Z,1012.31
2022-10-08T10:51:01.959Z,1012.30
2022-10-08T10:52:01.941Z,1012.27
2022-10-08T10:53:01.923Z,1012.29
2022-10-08T10:54:01.916Z,1012.25
2022-10-08T10:55:01.904Z,1012.31
2022-10-08T10:56:01.904Z,1012.26
2022-10-08T10:57:01.882Z,1012.25
2022-10-08T10:58:01.895Z,1012.28
2022-10-08T10:59:01.861Z,1012.30
2022-10-08T11:00:01.854Z,1012.26
2022-10-08T11:01:01.985Z,1012.28
2022-10-08T11:02:01.832Z,1012.30
2022-10-08T11:03:01.967Z,1012.30
2022-10-08T11:04:01.826Z,1012.30
2022-10-08T11:05:02.299Z,1012.34
2022-10-08T11:06:01.831Z,1012.30
2022-10-08T11:07:01.781Z,1012.30
2022-10-08T11:08:01.767Z,1012.33
2022-10-08T11:09:01.757Z,1012.31
2022-10-08T11:10:01.747Z,1012.32
2022-10-08T11:11:01.776Z,1012.31
2022-10-08T11:12:01.727Z,1012.33
2022-10-08T11:13:01.729Z,1012.31
2022-10-08T11:14:01.706Z,1012.37
2022-10-08T11:15:01.700Z,1012.31
2022-10-08T11:16:01.744Z,1012.37
2022-10-08T11:17:01.673Z,1012.36
2022-10-08T11:18:01.659Z,1012.37
2022-10-08T11:19:01.676Z,1012.37
2022-10-08T11:20:01.651Z,1012.39
2022-10-08T11:21:01.637Z,1012.36
2022-10-08T11:22:01.633Z,1012.33
2022-10-08T11:23:01.604Z,1012.32
2022-10-08T11:24:01.595Z,1012.32
2022-10-08T11:25:01.596Z,1012.37
2022-10-08T11:27:02.560Z,1012.30
2022-10-08T11:28:01.611Z,1012.37
2022-10-08T11:29:01.552Z,1012.35
2022-10-08T11:30:01.560Z,1012.38
2022-10-08T11:31:01.629Z,1012.43
2022-10-08T11:32:01.520Z,1012.43
2022-10-08T11:33:01.518Z,1012.41
2022-10-08T11:34:01.486Z,1012.42
2022-10-08T11:35:01.476Z,1012.37
2022-10-08T11:36:01.478Z,1012.45
2022-10-08T11:37:01.454Z,1012.45
2022-10-08T11:38:01.465Z,1012.45
2022-10-08T11:39:01.432Z,1012.53
2022-10-08T11:40:01.424Z,1012.51
2022-10-08T11:41:01.445Z,1012.54
2022-10-08T11:42:01.402Z,1012.58
2022-10-08T11:43:01.398Z,1012.58
2022-10-08T11:44:01.385Z,1012.60
2022-10-08T11:45:01.381Z,1012.59
2022-10-08T11:46:01.437Z,1012.65
2022-10-08T11:47:01.345Z,1012.68
2022-10-08T11:48:01.336Z,1012.69
2022-10-08T11:49:01.363Z,1012.68
2022-10-08T11:50:01.315Z,1012.63
2022-10-08T11:51:01.314Z,1012.61
2022-10-08T11:52:01.292Z,1012.63
2022-10-08T11:53:01.295Z,1012.63
2022-10-08T11:54:01.293Z,1012.60
2022-10-08T11:55:01.260Z,1012.59
2022-10-08T11:56:01.261Z,1012.57
2022-10-08T11:57:01.269Z,1012.55
2022-10-08T11:58:09.383Z,1012.56
2022-10-08T11:59:02.216Z,1012.57
2022-10-08T12:00:07.821Z,1012.56
2022-10-08T12:01:02.209Z,1012.57
2022-10-08T12:02:01.247Z,1012.58
2022-10-08T12:03:01.395Z,1012.59
2022-10-08T12:04:01.162Z,1012.61
2022-10-08T12:05:01.165Z,1012.53
2022-10-08T12:06:01.154Z,1012.58